createdAt,value
2018-10-01T00:00:58.902Z,2.93
2018-10-01T00:03:28.465Z,3.50
2018-10-01T00:05:58.046Z,3.10
2018-10-01T00:08:27.651Z,4.13
2018-10-01T00:10:57.168Z,3.83
2018-10-01T00:13:26.664Z,3.40
2018-10-01T00:15:56.192Z,4.00
2018-10-01T00:18:25.674Z,4.03
2018-10-01T00:21:00.195Z,3.70
2018-10-01T00:23:29.682Z,4.20
2018-10-01T00:25:59.206Z,3.83
2018-10-01T00:28:28.754Z,4.00
2018-10-01T00:30:58.398Z,4.27
2018-10-01T00:33:27.947Z,3.97
2018-10-01T00:35:57.442Z,4.20
2018-10-01T00:38:27.025Z,4.43
2018-10-01T00:40:56.563Z,3.87
2018-10-01T00:43:26.109Z,4.20
2018-10-01T00:45:55.622Z,4.10
2018-10-01T00:48:25.134Z,4.20
2018-10-01T00:50:54.655Z,4.17
2018-10-01T00:53:24.148Z,3.97
2018-10-01T00:55:53.679Z,4.07
2018-10-01T00:58:23.169Z,4.20
2018-10-01T01:00:52.688Z,3.83
2018-10-01T01:03:22.175Z,4.30
2018-10-01T01:05:51.719Z,3.80
2018-10-01T01:08:21.238Z,3.50
2018-10-01T01:10:50.762Z,3.57
2018-10-01T01:13:20.276Z,3.90
2018-10-01T01:15:50.090Z,3.83
2018-10-01T01:18:19.580Z,3.90
2018-10-01T01:20:49.149Z,3.63
2018-10-01T01:23:18.755Z,4.10
2018-10-01T01:25:48.274Z,3.63
2018-10-01T01:28:17.822Z,4.00
2018-10-01T01:30:47.343Z,4.00
2018-10-01T01:33:16.864Z,4.50
2018-10-01T01:35:46.435Z,4.40
2018-10-01T01:38:15.919Z,4.13
2018-10-01T01:40:45.443Z,4.43
2018-10-01T01:43:14.980Z,4.80
2018-10-01T01:45:44.506Z,4.47
2018-10-01T01:48:14.039Z,4.30
2018-10-01T01:50:43.524Z,4.53
2018-10-01T01:53:13.020Z,4.27
2018-10-01T01:55:42.508Z,4.07
2018-10-01T01:58:12.033Z,3.90
2018-10-01T02:00:41.515Z,4.20
2018-10-01T02:03:11.038Z,4.57
2018-10-01T02:05:40.549Z,4.57
2018-10-01T02:08:10.027Z,4.30
2018-10-01T02:10:39.546Z,4.70
2018-10-01T02:13:09.052Z,5.00
2018-10-01T02:15:38.635Z,5.17
2018-10-01T02:18:08.106Z,5.27
2018-10-01T02:20:37.642Z,4.90
2018-10-01T02:23:07.206Z,4.40
2018-10-01T02:25:36.750Z,5.27
2018-10-01T02:28:06.577Z,4.73
2018-10-01T02:30:36.071Z,4.97
2018-10-01T02:33:05.691Z,5.07
2018-10-01T02:35:35.216Z,4.87
2018-10-01T02:38:04.776Z,4.70
2018-10-01T02:40:34.400Z,5.93
2018-10-01T02:43:03.936Z,5.57
2018-10-01T02:45:33.451Z,4.97
2018-10-01T02:48:03.010Z,6.23
2018-10-01T02:50:32.511Z,5.73
2018-10-01T02:55:12.119Z,6.57
2018-10-01T02:57:41.695Z,6.20
2018-10-01T03:00:11.322Z,6.10
2018-10-01T03:02:41.111Z,5.80
2018-10-01T03:05:10.575Z,5.50
2018-10-01T03:07:40.242Z,6.57
2018-10-01T03:10:09.799Z,6.20
2018-10-01T03:12:39.327Z,6.30
2018-10-01T03:15:09.003Z,6.17
2018-10-01T03:17:38.556Z,6.40
2018-10-01T03:20:08.707Z,6.43
2018-10-01T03:22:38.208Z,6.57
2018-10-01T03:25:07.882Z,6.13
2018-10-01T03:27:37.368Z,6.50
2018-10-01T03:30:07.406Z,6.57
2018-10-01T03:32:36.991Z,6.53
2018-10-01T03:35:06.619Z,6.57
2018-10-01T03:37:36.115Z,6.90
2018-10-01T03:40:05.942Z,6.60
2018-10-01T03:42:35.419Z,7.90
2018-10-01T03:45:05.432Z,7.80
2018-10-01T03:47:34.906Z,8.30
2018-10-01T03:50:04.567Z,8.47
2018-10-01T03:52:34.203Z,8.57
2018-10-01T03:55:03.898Z,8.47
2018-10-01T03:57:33.486Z,8.80
2018-10-01T04:00:03.044Z,8.93
2018-10-01T04:02:32.589Z,8.30
2018-10-01T04:05:02.077Z,8.60
2018-10-01T04:07:31.600Z,9.43
2018-10-01T04:10:01.120Z,9.10
2018-10-01T04:12:30.786Z,9.43
2018-10-01T04:15:00.313Z,9.60
2018-10-01T04:17:29.917Z,9.30
2018-10-01T04:19:59.409Z,9.70
2018-10-01T04:22:34.453Z,10.30
2018-10-01T04:25:04.168Z,10.60
2018-10-01T04:27:33.746Z,10.53
2018-10-01T04:30:03.358Z,10.67
2018-10-01T04:32:32.834Z,10.37
2018-10-01T04:35:02.378Z,11.53
2018-10-01T04:37:31.911Z,9.77
2018-10-01T04:40:01.427Z,11.03
2018-10-01T04:42:31.009Z,10.80
2018-10-01T04:45:00.515Z,11.10
2018-10-01T04:47:30.050Z,11.80
2018-10-01T04:49:59.650Z,12.63
2018-10-01T04:52:29.234Z,11.50
2018-10-01T04:54:58.724Z,11.37
2018-10-01T04:57:28.254Z,10.93
2018-10-01T04:59:57.778Z,13.93
2018-10-01T05:02:27.291Z,11.73
2018-10-01T05:04:56.858Z,11.37
2018-10-01T05:07:26.393Z,10.77
2018-10-01T05:09:55.982Z,11.23
2018-10-01T05:12:25.928Z,10.80
2018-10-01T05:14:55.634Z,9.53
2018-10-01T05:17:25.119Z,10.13
2018-10-01T05:19:54.776Z,10.60
2018-10-01T05:22:24.330Z,11.07
2018-10-01T05:24:53.930Z,11.40
2018-10-01T05:27:23.525Z,11.40
2018-10-01T05:29:53.033Z,10.80
2018-10-01T05:32:22.648Z,11.80
2018-10-01T05:34:52.191Z,12.00
2018-10-01T05:37:22.034Z,11.03
2018-10-01T05:39:51.601Z,11.20
2018-10-01T05:42:21.229Z,11.80
2018-10-01T05:44:50.815Z,11.07
2018-10-01T05:47:20.438Z,10.40
2018-10-01T05:49:49.996Z,10.17
2018-10-01T05:52:19.636Z,10.43
2018-10-01T05:54:49.170Z,10.13
2018-10-01T05:57:18.754Z,11.10
2018-10-01T05:59:48.255Z,10.00
2018-10-01T06:02:17.915Z,9.23
2018-10-01T06:04:47.440Z,8.43
2018-10-01T06:07:17.010Z,8.53
2018-10-01T06:09:46.554Z,8.37
2018-10-01T06:12:16.103Z,8.10
2018-10-01T06:14:46.235Z,8.50
2018-10-01T06:17:15.758Z,8.60
2018-10-01T06:19:45.379Z,7.33
2018-10-01T06:22:15.254Z,7.40
2018-10-01T06:24:44.795Z,6.47
2018-10-01T06:27:14.352Z,7.50
2018-10-01T06:29:43.890Z,6.47
2018-10-01T06:32:13.432Z,6.27
2018-10-01T06:34:42.935Z,7.83
2018-10-01T06:37:12.487Z,7.13
2018-10-01T06:39:42.008Z,7.37
2018-10-01T06:42:11.601Z,7.60
2018-10-01T06:44:41.113Z,8.17
2018-10-01T06:47:10.691Z,8.80
2018-10-01T06:49:40.332Z,7.67
2018-10-01T06:52:09.826Z,6.10
2018-10-01T06:54:39.397Z,6.57
2018-10-01T06:57:08.953Z,8.13
2018-10-01T06:59:38.538Z,8.13
2018-10-01T07:02:08.219Z,8.43
2018-10-01T07:04:37.817Z,7.63
2018-10-01T07:07:07.575Z,7.30
2018-10-01T07:09:37.118Z,6.23
2018-10-01T07:12:06.692Z,5.93
2018-10-01T07:14:36.171Z,6.30
2018-10-01T07:17:05.878Z,6.23
2018-10-01T07:19:35.394Z,6.27
2018-10-01T07:22:05.157Z,5.80
2018-10-01T07:24:34.764Z,6.83
2018-10-01T07:27:04.373Z,6.63
2018-10-01T07:29:33.891Z,6.77
2018-10-01T07:32:03.463Z,7.33
2018-10-01T07:34:33.103Z,8.10
2018-10-01T07:37:02.627Z,8.77
2018-10-01T07:39:32.197Z,8.50
2018-10-01T07:42:02.475Z,9.10
2018-10-01T07:44:32.091Z,8.37
2018-10-01T07:47:01.596Z,9.03
2018-10-01T07:49:31.243Z,9.90
2018-10-01T07:52:00.826Z,10.17
2018-10-01T07:54:30.449Z,10.60
2018-10-01T07:56:59.940Z,9.17
2018-10-01T07:59:29.532Z,10.00
2018-10-01T08:01:59.071Z,8.30
2018-10-01T08:04:29.094Z,8.27
2018-10-01T08:06:58.633Z,9.37
2018-10-01T08:09:28.260Z,9.33
2018-10-01T08:11:57.704Z,8.60
2018-10-01T08:14:27.270Z,8.33
2018-10-01T08:16:56.835Z,8.83
2018-10-01T08:19:26.375Z,9.53
2018-10-01T08:21:55.902Z,8.77
2018-10-01T08:24:26.237Z,7.77
2018-10-01T08:26:56.000Z,8.90
2018-10-01T08:29:25.653Z,9.27
2018-10-01T08:31:55.200Z,8.80
2018-10-01T08:34:24.735Z,8.13
2018-10-01T08:36:54.274Z,8.60
2018-10-01T08:39:23.827Z,8.83
2018-10-01T08:41:53.463Z,7.40
2018-10-01T08:44:23.083Z,6.53
2018-10-01T08:46:52.638Z,6.57
2018-10-01T08:49:27.243Z,6.40
2018-10-01T08:52:03.883Z,6.60
2018-10-01T08:54:35.536Z,6.80
2018-10-01T08:57:06.525Z,7.50
2018-10-01T08:59:37.004Z,8.10
2018-10-01T09:02:06.730Z,8.73
2018-10-01T09:04:36.916Z,9.67
2018-10-01T09:07:06.541Z,10.23
2018-10-01T09:09:36.108Z,9.60
2018-10-01T09:12:05.666Z,10.00
2018-10-01T09:14:35.273Z,9.13
2018-10-01T09:17:04.926Z,8.10
2018-10-01T09:19:34.463Z,7.53
2018-10-01T09:22:03.973Z,8.47
2018-10-01T09:24:33.616Z,8.53
2018-10-01T09:27:03.202Z,7.83
2018-10-01T09:29:32.851Z,7.73
2018-10-01T09:32:02.501Z,8.30
2018-10-01T09:34:32.030Z,8.00
2018-10-01T09:37:01.568Z,7.70
2018-10-01T09:39:31.151Z,8.47
2018-10-01T09:42:00.705Z,7.30
2018-10-01T09:44:30.339Z,6.17
2018-10-01T09:46:59.903Z,6.33
2018-10-01T09:49:30.752Z,6.37
2018-10-01T09:52:00.285Z,6.40
2018-10-01T09:54:29.927Z,6.10
2018-10-01T09:56:59.661Z,5.13
2018-10-01T09:59:29.663Z,4.63
2018-10-01T10:01:59.293Z,4.60
2018-10-01T10:04:28.775Z,4.43
2018-10-01T10:06:58.660Z,4.90
2018-10-01T10:09:28.463Z,4.43
2018-10-01T10:11:58.070Z,4.13
2018-10-01T10:14:27.628Z,4.50
2018-10-01T10:16:57.227Z,4.60
2018-10-01T10:19:26.797Z,4.87
2018-10-01T10:21:56.391Z,6.00
2018-10-01T10:24:26.479Z,5.57
2018-10-01T10:26:56.044Z,4.40
2018-10-01T10:29:26.512Z,4.67
2018-10-01T10:31:56.080Z,6.07
2018-10-01T10:34:26.704Z,6.63
2018-10-01T10:36:56.596Z,4.77
2018-10-01T10:39:26.917Z,4.77
2018-10-01T10:41:58.151Z,4.00
2018-10-01T10:44:27.743Z,4.37
2018-10-01T10:46:57.242Z,5.50
2018-10-01T10:49:26.805Z,4.87
2018-10-01T10:51:56.387Z,5.33
2018-10-01T10:54:26.031Z,7.10
2018-10-01T10:56:55.646Z,6.43
2018-10-01T10:59:25.268Z,6.27
2018-10-01T11:01:54.942Z,6.30
2018-10-01T11:04:24.466Z,6.80
2018-10-01T11:06:54.075Z,5.43
2018-10-01T11:09:23.848Z,4.90
2018-10-01T11:11:53.389Z,5.27
2018-10-01T11:14:23.121Z,5.00
2018-10-01T11:16:52.578Z,4.83
2018-10-01T11:19:22.344Z,3.57
2018-10-01T11:21:51.914Z,4.33
2018-10-01T11:24:21.651Z,4.40
2018-10-01T11:26:51.564Z,3.90
2018-10-01T11:29:21.100Z,4.63
2018-10-01T11:31:50.884Z,4.50
2018-10-01T11:34:20.390Z,4.87
2018-10-01T11:36:49.950Z,4.80
2018-10-01T11:39:19.624Z,6.00
2018-10-01T11:41:49.194Z,6.10
2018-10-01T11:44:18.822Z,4.60
2018-10-01T11:46:48.490Z,4.70
2018-10-01T11:49:18.158Z,4.90
2018-10-01T11:51:47.799Z,5.80
2018-10-01T11:54:17.457Z,5.57
2018-10-01T11:56:47.241Z,6.20
2018-10-01T11:59:16.915Z,6.40
2018-10-01T12:01:46.607Z,7.43
2018-10-01T12:04:16.352Z,7.27
2018-10-01T12:06:45.952Z,7.70
2018-10-01T12:09:15.551Z,7.13
2018-10-01T12:11:45.244Z,7.00
2018-10-01T12:14:14.903Z,7.10
2018-10-01T12:16:44.533Z,7.27
2018-10-01T12:19:14.072Z,5.80
2018-10-01T12:21:43.818Z,5.70
2018-10-01T12:24:13.438Z,4.60
2018-10-01T12:26:43.074Z,3.27
2018-10-01T12:29:12.702Z,3.50
2018-10-01T12:31:42.370Z,2.93
2018-10-01T12:34:11.975Z,2.50
2018-10-01T12:36:41.653Z,2.57
2018-10-01T12:39:11.534Z,3.13
2018-10-01T12:41:41.126Z,2.80
2018-10-01T12:44:11.188Z,3.30
2018-10-01T12:46:41.035Z,3.43
2018-10-01T12:49:10.805Z,3.53
2018-10-01T12:51:43.773Z,4.53
2018-10-01T12:54:14.086Z,4.40
2018-10-01T12:56:43.876Z,4.60
2018-10-01T12:59:13.591Z,5.20
2018-10-01T13:01:43.411Z,5.60
2018-10-01T13:04:13.881Z,4.80
2018-10-01T13:06:43.707Z,5.53
2018-10-01T13:09:13.871Z,5.27
2018-10-01T13:11:44.170Z,5.43
2018-10-01T13:14:13.949Z,5.00
2018-10-01T13:16:43.630Z,5.47
2018-10-01T13:19:13.339Z,5.47
2018-10-01T13:21:42.974Z,5.23
2018-10-01T13:24:12.743Z,6.23
2018-10-01T13:26:42.407Z,6.13
2018-10-01T13:29:12.070Z,6.40
2018-10-01T13:31:41.959Z,5.43
2018-10-01T13:34:11.535Z,5.43
2018-10-01T13:36:41.422Z,5.63
2018-10-01T13:39:12.523Z,6.10
2018-10-01T13:41:42.381Z,5.90
2018-10-01T13:44:12.128Z,5.77
2018-10-01T13:46:41.691Z,6.40
2018-10-01T13:49:11.268Z,6.20
2018-10-01T13:51:40.871Z,6.27
2018-10-01T13:54:10.649Z,6.33
2018-10-01T13:56:40.225Z,6.80
2018-10-01T13:59:09.737Z,6.70
2018-10-01T14:01:39.383Z,7.00
2018-10-01T14:04:08.837Z,6.73
2018-10-01T14:06:38.407Z,6.80
2018-10-01T14:09:09.706Z,6.13
2018-10-01T14:11:39.478Z,5.90
2018-10-01T14:14:09.099Z,6.03
2018-10-01T14:16:38.852Z,5.23
2018-10-01T14:19:08.661Z,7.07
2018-10-01T14:21:38.468Z,6.20
2018-10-01T14:24:08.165Z,6.67
2018-10-01T14:26:37.818Z,5.73
2018-10-01T14:29:07.496Z,6.33
2018-10-01T14:31:37.403Z,6.03
2018-10-01T14:34:06.971Z,6.87
2018-10-01T14:36:36.589Z,5.90
2018-10-01T14:39:06.867Z,6.67
2018-10-01T14:41:36.508Z,9.50
2018-10-01T14:44:06.199Z,6.17
2018-10-01T14:46:36.329Z,6.63
2018-10-01T14:49:05.973Z,6.50
2018-10-01T14:51:35.547Z,6.20
2018-10-01T14:54:05.244Z,8.23
2018-10-01T14:56:34.809Z,6.30
2018-10-01T14:59:04.426Z,6.77
2018-10-01T15:01:33.930Z,6.33
2018-10-01T15:04:03.484Z,6.87
2018-10-01T15:06:33.145Z,7.70
2018-10-01T15:09:02.695Z,7.00
2018-10-01T15:11:32.200Z,7.63
2018-10-01T15:14:01.734Z,7.67
2018-10-01T15:16:31.238Z,7.40
2018-10-01T15:19:00.838Z,7.77
2018-10-01T15:21:30.898Z,7.67
2018-10-01T15:24:00.670Z,7.73
2018-10-01T15:26:30.184Z,7.30
2018-10-01T15:28:59.712Z,8.03
2018-10-01T15:31:29.264Z,7.97
2018-10-01T15:33:58.805Z,8.90
2018-10-01T15:36:28.353Z,8.10
2018-10-01T15:38:57.885Z,8.60
2018-10-01T15:41:27.503Z,8.70
2018-10-01T15:43:57.025Z,9.13
2018-10-01T15:46:26.587Z,9.07
2018-10-01T15:48:56.092Z,9.40
2018-10-01T15:51:25.614Z,9.80
2018-10-01T15:53:55.092Z,9.17
2018-10-01T15:56:24.666Z,9.30
2018-10-01T15:58:54.394Z,8.93
2018-10-01T16:01:24.668Z,8.83
2018-10-01T16:03:54.190Z,9.17
2018-10-01T16:06:23.735Z,8.93
2018-10-01T16:08:53.243Z,8.83
2018-10-01T16:11:22.861Z,9.03
2018-10-01T16:13:52.354Z,8.97
2018-10-01T16:16:21.951Z,8.53
2018-10-01T16:18:51.478Z,9.23
2018-10-01T16:21:21.027Z,8.83
2018-10-01T16:23:50.609Z,9.70
2018-10-01T16:26:20.151Z,9.50
2018-10-01T16:28:49.663Z,9.57
2018-10-01T16:31:19.210Z,9.53
2018-10-01T16:33:48.695Z,10.70
2018-10-01T16:36:18.498Z,10.47
2018-10-01T16:38:48.182Z,10.67
2018-10-01T16:41:17.737Z,11.33
2018-10-01T16:43:47.288Z,10.63
2018-10-01T16:46:16.858Z,10.13
2018-10-01T16:48:46.458Z,10.80
2018-10-01T16:51:15.994Z,9.80
2018-10-01T16:53:45.518Z,9.67
2018-10-01T16:56:15.094Z,9.57
2018-10-01T16:58:44.658Z,12.37
2018-10-01T17:01:14.162Z,14.03
2018-10-01T17:03:43.712Z,11.53
2018-10-01T17:06:13.234Z,10.07
2018-10-01T17:08:42.788Z,16.93
2018-10-01T17:11:12.324Z,14.27
2018-10-01T17:13:41.917Z,15.20
2018-10-01T17:16:11.419Z,13.90
2018-10-01T17:18:40.946Z,12.40
2018-10-01T17:21:10.575Z,12.67
2018-10-01T17:23:40.138Z,12.80
2018-10-01T17:26:09.647Z,12.33
2018-10-01T17:28:39.233Z,12.37
2018-10-01T17:31:08.813Z,13.23
2018-10-01T17:33:38.298Z,12.20
2018-10-01T17:36:08.048Z,12.37
2018-10-01T17:38:37.785Z,12.53
2018-10-01T17:41:07.530Z,12.70
2018-10-01T17:43:37.039Z,12.53
2018-10-01T17:46:06.729Z,12.30
2018-10-01T17:48:36.258Z,12.63
2018-10-01T17:51:05.842Z,12.40
2018-10-01T17:53:35.401Z,12.57
2018-10-01T17:56:04.904Z,13.03
2018-10-01T17:58:34.530Z,13.37
2018-10-01T18:01:04.264Z,13.00
2018-10-01T18:03:33.806Z,12.33
2018-10-01T18:06:03.457Z,12.40
2018-10-01T18:08:32.957Z,13.20
2018-10-01T18:11:02.668Z,13.80
2018-10-01T18:13:32.227Z,15.80
2018-10-01T18:16:01.739Z,14.50
2018-10-01T18:18:31.302Z,14.70
2018-10-01T18:21:00.902Z,14.23
2018-10-01T18:23:30.434Z,16.63
2018-10-01T18:26:00.287Z,16.47
2018-10-01T18:28:29.906Z,16.80
2018-10-01T18:30:59.441Z,18.37
2018-10-01T18:33:28.963Z,17.07
2018-10-01T18:35:58.552Z,18.30
2018-10-01T18:38:28.050Z,20.43
2018-10-01T18:40:57.623Z,19.27
2018-10-01T18:43:27.402Z,17.30
2018-10-01T18:45:56.955Z,17.33
2018-10-01T18:48:26.563Z,15.73
2018-10-01T18:50:56.091Z,15.93
2018-10-01T18:53:25.658Z,15.57
2018-10-01T18:55:55.180Z,16.33
2018-10-01T18:58:24.802Z,18.63
2018-10-01T19:00:54.359Z,16.17
2018-10-01T19:03:24.046Z,16.43
2018-10-01T19:05:53.737Z,15.83
2018-10-01T19:08:23.254Z,17.03
2018-10-01T19:10:52.835Z,16.77
2018-10-01T19:13:22.354Z,16.33
2018-10-01T19:15:51.888Z,17.10
2018-10-01T19:18:21.486Z,17.63
2018-10-01T19:20:51.018Z,16.63
2018-10-01T19:23:20.579Z,18.20
2018-10-01T19:25:50.124Z,17.63
2018-10-01T19:28:19.633Z,16.60
2018-10-01T19:30:49.166Z,17.07
2018-10-01T19:33:18.831Z,16.60
2018-10-01T19:35:48.391Z,16.23
2018-10-01T19:38:17.990Z,16.30
2018-10-01T19:40:47.518Z,17.00
2018-10-01T19:43:17.160Z,17.07
2018-10-01T19:45:46.691Z,17.30
2018-10-01T19:48:16.239Z,17.10
2018-10-01T19:50:45.799Z,17.03
2018-10-01T19:53:15.342Z,17.73
2018-10-01T19:55:44.902Z,17.53
2018-10-01T19:58:14.430Z,17.70
2018-10-01T20:00:44.206Z,19.07
2018-10-01T20:03:13.737Z,17.47
2018-10-01T20:05:43.207Z,16.63
2018-10-01T20:08:12.780Z,17.13
2018-10-01T20:10:42.377Z,17.50
2018-10-01T20:13:11.883Z,18.63
2018-10-01T20:15:41.421Z,17.53
2018-10-01T20:18:10.921Z,17.43
2018-10-01T20:20:40.459Z,17.57
2018-10-01T20:23:09.959Z,18.13
2018-10-01T20:25:39.519Z,17.87
2018-10-01T20:28:09.221Z,18.83
2018-10-01T20:30:38.818Z,17.73
2018-10-01T20:33:08.287Z,19.17
2018-10-01T20:35:38.139Z,18.37
2018-10-01T20:38:07.526Z,18.37
2018-10-01T20:40:37.039Z,18.47
2018-10-01T20:43:06.711Z,18.70
2018-10-01T20:45:36.214Z,18.43
2018-10-01T20:48:05.781Z,20.53
2018-10-01T20:50:35.329Z,19.10
2018-10-01T20:53:04.986Z,20.30
2018-10-01T20:55:34.471Z,19.57
2018-10-01T20:58:04.042Z,18.50
2018-10-01T21:00:33.547Z,18.60
2018-10-01T21:03:03.159Z,18.60
2018-10-01T21:05:32.662Z,18.23
2018-10-01T21:08:02.189Z,18.27
2018-10-01T21:10:31.702Z,17.17
2018-10-01T21:13:01.272Z,15.83
2018-10-01T21:15:30.812Z,14.43
2018-10-01T21:18:00.387Z,13.70
2018-10-01T21:20:29.965Z,14.43
2018-10-01T21:22:59.514Z,13.00
2018-10-01T21:25:29.110Z,14.00
2018-10-01T21:27:58.635Z,11.93
2018-10-01T21:30:28.226Z,14.10
2018-10-01T21:32:57.882Z,13.10
2018-10-01T21:35:27.435Z,13.30
2018-10-01T21:37:57.051Z,11.40
2018-10-01T21:40:26.617Z,11.00
2018-10-01T21:42:56.262Z,12.73
2018-10-01T21:45:25.793Z,13.30
2018-10-01T21:47:55.307Z,12.53
2018-10-01T21:50:24.887Z,13.93
2018-10-01T21:52:54.516Z,16.13
2018-10-01T21:55:24.112Z,14.10
2018-10-01T21:57:53.768Z,14.90
2018-10-01T22:00:23.358Z,16.83
2018-10-01T22:02:52.886Z,14.57
2018-10-01T22:05:22.445Z,16.57
2018-10-01T22:07:52.109Z,15.07
2018-10-01T22:10:21.611Z,16.07
2018-10-01T22:12:51.173Z,14.57
2018-10-01T22:15:20.729Z,14.30
2018-10-01T22:17:50.282Z,14.60
2018-10-01T22:20:19.895Z,14.53
2018-10-01T22:22:49.401Z,15.00
2018-10-01T22:25:18.967Z,14.40
2018-10-01T22:27:48.478Z,14.97
2018-10-01T22:30:18.031Z,14.60
2018-10-01T22:32:47.535Z,14.23
2018-10-01T22:35:17.078Z,13.70
2018-10-01T22:37:46.591Z,14.03
2018-10-01T22:40:16.150Z,13.47
2018-10-01T22:42:45.917Z,12.53
2018-10-01T22:45:15.427Z,12.50
2018-10-01T22:47:45.015Z,13.43
2018-10-01T22:50:14.619Z,12.60
2018-10-01T22:52:44.135Z,13.37
2018-10-01T22:55:13.760Z,13.77
2018-10-01T22:57:43.371Z,15.07
2018-10-01T23:00:13.031Z,19.83
2018-10-01T23:02:42.527Z,20.10
2018-10-01T23:05:12.082Z,23.27
2018-10-01T23:07:41.655Z,23.47
2018-10-01T23:10:11.214Z,27.50
2018-10-01T23:12:40.742Z,25.03
2018-10-01T23:15:10.308Z,23.90
2018-10-01T23:17:39.909Z,24.60
2018-10-01T23:20:09.498Z,25.10
2018-10-01T23:22:39.068Z,23.80
2018-10-01T23:25:08.591Z,22.57
2018-10-01T23:27:38.118Z,21.73
2018-10-01T23:30:07.705Z,21.43
2018-10-01T23:32:37.298Z,20.73
2018-10-01T23:35:06.934Z,20.47
2018-10-01T23:37:36.482Z,19.43
2018-10-01T23:40:06.171Z,21.47
2018-10-01T23:42:35.705Z,21.20
2018-10-01T23:45:05.307Z,21.53
2018-10-01T23:47:34.834Z,20.60
2018-10-01T23:50:04.414Z,20.57
2018-10-01T23:52:33.956Z,20.57
2018-10-01T23:55:03.491Z,19.63
2018-10-01T23:57:33.043Z,19.43
